Accueil
METAR-TAF:

METAR-TAF

Aéroports :

Branch County Memorial Airport

Coldwater, Michigan, États-Unis

latitude: 41-56N, longitude: 085-03-09W, altitude: 292 m

Observation

Le bulletin a été fait il y a 20 minutes, à 07:15 UTC
Vent 6 kt de sud/sud-ouest
Température 16°C
Humidité 72%
Pression 1012 hPa
Visibilité: 16.1 km
Nuages épars à une hauteur de 3900 ft
Nuages fragmentés à une hauteur de 6000 ft
Ciel couvert à une hauteur de 12000 ft
pluie faible

METAR: KOEB 210715Z AUTO 20006KT 10SM -RA SCT039 BKN060 OVC120 16/11 A2987 RMK AO2 T01580108

Heure: 03:35 (07:35 UTC)


TAF: absent

Observations et prévisions météorologiques de plus de 4000 aéroports (messages METAR et TAF).

Les stations disponibles sont représentées par des disques jaunes et rouges sur la carte.

Passer la souris dessus pour voir le nom de la station.

Cliquer dessus pour voir les observations et prévisions météorologiques.

Pour changer de carte: cliquez sur les boutons verts avec une croix noire pour zoomer, sur le bouton vert avec un tiret pour effectuer un zoom arrière, ou sur les flèches vertes pour les cartes adjacentes.


METAR-TAF: